TGW883 WSSS-RPVM
Flight info
| Callsign | TGW883 |
|---|---|
| Flight time | N/A |
| Altitude | 37000 |
| Route | TOMAN5B TOMAN M646 BRU W461 VSN A341 ZAM G578 ALDIN ALDIN3P |
| Aircraft | E190/M-SDE3GILORVW/S |
Departure
| Time | N/A |
|---|---|
| Airport | Singapore Changi Airport (WSSS) |
Arrival
| Time | 2026-05-05 11:21 |
|---|---|
| Airport | Mactan Cebu International Airport (RPVM) |
| Time | Latitude | Longitude | Altitude | Speed | Heading |
|---|---|---|---|---|---|
| 2026-05-05 10:45 | 7.90191 | 122.60872 | 36993 ft | 460 kts | 28° |
| 2026-05-05 10:46 | 7.95782 | 122.64047 | 36993 ft | 460 kts | 28° |
| 2026-05-05 10:46 | 8.01402 | 122.67239 | 36991 ft | 460 kts | 28° |
| 2026-05-05 10:47 | 8.07017 | 122.70428 | 36991 ft | 460 kts | 28° |
| 2026-05-05 10:47 | 8.12640 | 122.73624 | 36992 ft | 460 kts | 28° |
| 2026-05-05 10:48 | 8.18238 | 122.76807 | 36992 ft | 461 kts | 28° |
| 2026-05-05 10:48 | 8.23822 | 122.79983 | 36992 ft | 461 kts | 28° |
| 2026-05-05 10:49 | 8.29372 | 122.83140 | 36992 ft | 463 kts | 28° |
| 2026-05-05 10:49 | 8.34984 | 122.86334 | 36992 ft | 463 kts | 28° |
| 2026-05-05 10:50 | 8.40618 | 122.89541 | 36992 ft | 463 kts | 28° |
| 2026-05-05 10:50 | 8.47167 | 122.93270 | 36992 ft | 463 kts | 28° |
| 2026-05-05 10:51 | 8.52820 | 122.96491 | 36992 ft | 464 kts | 28° |
| 2026-05-05 10:51 | 8.57508 | 122.99162 | 36992 ft | 465 kts | 28° |
| 2026-05-05 10:52 | 8.64101 | 123.02921 | 36992 ft | 464 kts | 28° |
| 2026-05-05 10:52 | 8.68836 | 123.05621 | 36992 ft | 464 kts | 28° |
| 2026-05-05 10:53 | 8.74480 | 123.08840 | 36992 ft | 464 kts | 28° |
| 2026-05-05 10:53 | 8.81048 | 123.12588 | 36992 ft | 463 kts | 28° |
| 2026-05-05 10:54 | 8.85750 | 123.15272 | 36992 ft | 463 kts | 28° |
| 2026-05-05 10:54 | 8.91387 | 123.18491 | 36992 ft | 463 kts | 28° |
| 2026-05-05 10:55 | 8.96956 | 123.21673 | 36800 ft | 449 kts | 28° |
| 2026-05-05 10:55 | 8.99667 | 123.23222 | 36174 ft | 444 kts | 28° |
| 2026-05-05 10:55 | 9.02369 | 123.24766 | 35307 ft | 443 kts | 28° |
| 2026-05-05 10:55 | 9.05931 | 123.26801 | 34191 ft | 442 kts | 28° |
| 2026-05-05 10:56 | 9.07718 | 123.27824 | 33734 ft | 438 kts | 28° |
| 2026-05-05 10:56 | 9.11174 | 123.29800 | 33534 ft | 413 kts | 28° |
| 2026-05-05 10:56 | 9.12608 | 123.30620 | 33415 ft | 405 kts | 28° |
| 2026-05-05 10:56 | 9.15049 | 123.32016 | 33017 ft | 396 kts | 28° |
| 2026-05-05 10:57 | 9.17385 | 123.33353 | 32443 ft | 392 kts | 28° |
| 2026-05-05 10:57 | 9.19745 | 123.34702 | 31782 ft | 391 kts | 28° |
| 2026-05-05 10:57 | 9.22884 | 123.36499 | 30925 ft | 388 kts | 28° |
| 2026-05-05 10:57 | 9.24469 | 123.37406 | 30520 ft | 386 kts | 28° |
| 2026-05-05 10:58 | 9.26792 | 123.38736 | 29946 ft | 382 kts | 28° |
| 2026-05-05 10:58 | 9.29865 | 123.40495 | 29193 ft | 377 kts | 28° |
| 2026-05-05 10:58 | 9.31397 | 123.41373 | 28813 ft | 375 kts | 28° |
| 2026-05-05 10:58 | 9.33677 | 123.42678 | 28242 ft | 371 kts | 28° |
| 2026-05-05 10:59 | 9.35897 | 123.43950 | 27680 ft | 368 kts | 28° |
| 2026-05-05 10:59 | 9.38113 | 123.45219 | 27112 ft | 365 kts | 28° |
| 2026-05-05 10:59 | 9.40336 | 123.46493 | 26545 ft | 362 kts | 28° |
| 2026-05-05 10:59 | 9.42524 | 123.47746 | 25988 ft | 359 kts | 28° |
| 2026-05-05 11:00 | 9.44690 | 123.48988 | 25436 ft | 355 kts | 28° |
| 2026-05-05 11:00 | 9.46853 | 123.50228 | 24884 ft | 352 kts | 28° |
| 2026-05-05 11:00 | 9.48969 | 123.51441 | 24344 ft | 349 kts | 28° |
| 2026-05-05 11:00 | 9.51076 | 123.52649 | 23835 ft | 345 kts | 28° |
| 2026-05-05 11:01 | 9.53164 | 123.53847 | 23308 ft | 342 kts | 28° |
| 2026-05-05 11:01 | 9.55244 | 123.55039 | 22767 ft | 339 kts | 28° |
| 2026-05-05 11:01 | 9.57211 | 123.56167 | 22456 ft | 329 kts | 28° |
| 2026-05-05 11:01 | 9.59158 | 123.57285 | 22443 ft | 310 kts | 29° |
| 2026-05-05 11:02 | 9.61061 | 123.58160 | 22385 ft | 293 kts | 19° |
| 2026-05-05 11:02 | 9.62937 | 123.58852 | 22213 ft | 282 kts | 19° |
| 2026-05-05 11:02 | 9.65382 | 123.59752 | 21732 ft | 278 kts | 19° |
| 2026-05-05 11:02 | 9.66603 | 123.60201 | 21439 ft | 278 kts | 19° |
| 2026-05-05 11:03 | 9.68437 | 123.60876 | 21011 ft | 278 kts | 19° |
| 2026-05-05 11:03 | 9.70248 | 123.61543 | 20610 ft | 276 kts | 19° |
| 2026-05-05 11:03 | 9.72048 | 123.62205 | 20215 ft | 275 kts | 19° |
| 2026-05-05 11:03 | 9.73799 | 123.62849 | 19756 ft | 273 kts | 19° |
| 2026-05-05 11:04 | 9.76096 | 123.63695 | 19073 ft | 271 kts | 19° |
| 2026-05-05 11:04 | 9.77286 | 123.64133 | 18713 ft | 270 kts | 19° |
| 2026-05-05 11:04 | 9.79613 | 123.64989 | 18015 ft | 267 kts | 19° |
| 2026-05-05 11:04 | 9.80549 | 123.65334 | 17735 ft | 266 kts | 19° |
| 2026-05-05 11:05 | 9.82855 | 123.66183 | 17044 ft | 263 kts | 19° |
| 2026-05-05 11:05 | 9.83997 | 123.66603 | 16703 ft | 262 kts | 19° |
| 2026-05-05 11:05 | 9.86284 | 123.67445 | 16038 ft | 258 kts | 19° |
| 2026-05-05 11:05 | 9.87940 | 123.68056 | 15817 ft | 244 kts | 19° |
| 2026-05-05 11:06 | 9.88983 | 123.68440 | 15661 ft | 237 kts | 19° |
| 2026-05-05 11:06 | 9.91059 | 123.69205 | 15218 ft | 240 kts | 19° |
| 2026-05-05 11:06 | 9.92114 | 123.69594 | 14992 ft | 239 kts | 19° |
| 2026-05-05 11:06 | 9.93679 | 123.70171 | 14652 ft | 235 kts | 19° |
| 2026-05-05 11:07 | 9.95704 | 123.70917 | 14214 ft | 231 kts | 19° |
| 2026-05-05 11:07 | 9.96712 | 123.71288 | 14010 ft | 230 kts | 19° |
| 2026-05-05 11:07 | 9.98219 | 123.71843 | 13682 ft | 229 kts | 20° |
| 2026-05-05 11:07 | 10.00225 | 123.72582 | 13262 ft | 228 kts | 20° |
| 2026-05-05 11:08 | 10.01727 | 123.73136 | 12970 ft | 241 kts | 20° |
| 2026-05-05 11:08 | 10.02786 | 123.73527 | 12784 ft | 246 kts | 20° |
| 2026-05-05 11:08 | 10.04431 | 123.74133 | 12457 ft | 248 kts | 20° |
| 2026-05-05 11:08 | 10.06072 | 123.74640 | 12115 ft | 246 kts | 1° |
| 2026-05-05 11:09 | 10.07701 | 123.74255 | 11854 ft | 243 kts | 325° |
| 2026-05-05 11:09 | 10.09042 | 123.72504 | 11515 ft | 239 kts | 277° |
| 2026-05-05 11:09 | 10.09019 | 123.71397 | 11363 ft | 237 kts | 251° |
| 2026-05-05 11:09 | 10.07764 | 123.69618 | 11042 ft | 236 kts | 223° |
| 2026-05-05 11:10 | 10.06965 | 123.68858 | 10833 ft | 235 kts | 223° |
| 2026-05-05 11:10 | 10.05767 | 123.67732 | 10508 ft | 233 kts | 223° |
| 2026-05-05 11:10 | 10.04604 | 123.66640 | 10100 ft | 227 kts | 223° |
| 2026-05-05 11:10 | 10.03060 | 123.65192 | 9376 ft | 226 kts | 219° |
| 2026-05-05 11:11 | 10.02144 | 123.64681 | 8970 ft | 226 kts | 191° |
| 2026-05-05 11:11 | 10.00177 | 123.65122 | 8178 ft | 227 kts | 137° |
| 2026-05-05 11:11 | 9.99558 | 123.65992 | 7804 ft | 227 kts | 108° |
| 2026-05-05 11:11 | 9.99531 | 123.67532 | 7275 ft | 226 kts | 68° |
| 2026-05-05 11:12 | 10.00842 | 123.69170 | 6558 ft | 225 kts | 43° |
| 2026-05-05 11:12 | 10.01611 | 123.69878 | 6220 ft | 224 kts | 43° |
| 2026-05-05 11:12 | 10.02778 | 123.70950 | 5710 ft | 222 kts | 43° |
| 2026-05-05 11:12 | 10.03906 | 123.71986 | 5209 ft | 221 kts | 43° |
| 2026-05-05 11:13 | 10.05405 | 123.73363 | 4657 ft | 211 kts | 43° |
| 2026-05-05 11:13 | 10.06120 | 123.74020 | 4420 ft | 205 kts | 43° |
| 2026-05-05 11:13 | 10.07186 | 123.74998 | 4042 ft | 205 kts | 43° |
| 2026-05-05 11:13 | 10.08235 | 123.75959 | 3751 ft | 195 kts | 43° |
| 2026-05-05 11:14 | 10.09211 | 123.76852 | 3461 ft | 182 kts | 43° |
| 2026-05-05 11:14 | 10.10098 | 123.77631 | 3359 ft | 151 kts | 39° |
| 2026-05-05 11:14 | 10.11231 | 123.78591 | 2912 ft | 180 kts | 42° |
| 2026-05-05 11:14 | 10.11839 | 123.79135 | 3000 ft | 168 kts | 42° |
| 2026-05-05 11:15 | 10.12704 | 123.79918 | 3025 ft | 174 kts | 43° |
| 2026-05-05 11:15 | 10.13607 | 123.80747 | 3045 ft | 180 kts | 43° |
| 2026-05-05 11:15 | 10.14522 | 123.81596 | 3028 ft | 176 kts | 44° |
| 2026-05-05 11:15 | 10.15405 | 123.82465 | 3027 ft | 175 kts | 45° |
| 2026-05-05 11:16 | 10.16257 | 123.83301 | 2877 ft | 168 kts | 45° |
| 2026-05-05 11:16 | 10.17095 | 123.84121 | 2609 ft | 168 kts | 45° |
| 2026-05-05 11:16 | 10.17933 | 123.84956 | 2243 ft | 168 kts | 46° |
| 2026-05-05 11:16 | 10.18723 | 123.85780 | 2182 ft | 155 kts | 46° |
| 2026-05-05 11:17 | 10.19491 | 123.86573 | 2012 ft | 168 kts | 47° |
| 2026-05-05 11:17 | 10.20288 | 123.87470 | 1971 ft | 173 kts | 50° |
| 2026-05-05 11:17 | 10.21110 | 123.88384 | 1969 ft | 173 kts | 46° |
| 2026-05-05 11:17 | 10.21934 | 123.89220 | 2109 ft | 159 kts | 44° |
| 2026-05-05 11:18 | 10.22754 | 123.89990 | 2103 ft | 160 kts | 43° |
| 2026-05-05 11:18 | 10.23810 | 123.90991 | 1909 ft | 153 kts | 44° |
| 2026-05-05 11:18 | 10.24307 | 123.91465 | 1808 ft | 147 kts | 44° |
| 2026-05-05 11:18 | 10.25316 | 123.92459 | 1453 ft | 155 kts | 46° |
| 2026-05-05 11:19 | 10.25845 | 123.93004 | 1198 ft | 162 kts | 46° |
| 2026-05-05 11:19 | 10.26612 | 123.93801 | 763 ft | 154 kts | 46° |
| 2026-05-05 11:19 | 10.27327 | 123.94523 | 632 ft | 139 kts | 44° |
| 2026-05-05 11:19 | 10.28036 | 123.95216 | 533 ft | 145 kts | 45° |
| 2026-05-05 11:20 | 10.28959 | 123.96142 | 285 ft | 137 kts | 46° |
| 2026-05-05 11:20 | 10.29429 | 123.96614 | 150 ft | 145 kts | 45° |
| 2026-05-05 11:20 | 10.30346 | 123.97531 | 34 ft | 124 kts | 45° |
| 2026-05-05 11:20 | 10.30715 | 123.97904 | 33 ft | 94 kts | 46° |
| 2026-05-05 11:21 | 10.31075 | 123.98260 | 33 ft | 37 kts | 31° |
| 2026-05-05 11:21 | 10.31232 | 123.98326 | 33 ft | 32 kts | 16° |
| 2026-05-05 11:21 | 10.31366 | 123.98342 | 33 ft | 15 kts | 335° |
| 2026-05-05 11:21 | 10.31438 | 123.98265 | 33 ft | 15 kts | 304° |
| 2026-05-05 11:22 | 10.31372 | 123.98150 | 33 ft | 16 kts | 226° |
| 2026-05-05 11:22 | 10.31315 | 123.98091 | 33 ft | 17 kts | 225° |
| 2026-05-05 11:22 | 10.31223 | 123.98003 | 33 ft | 18 kts | 221° |
| 2026-05-05 11:22 | 10.31127 | 123.97911 | 33 ft | 20 kts | 225° |
| 2026-05-05 11:23 | 10.31035 | 123.97816 | 33 ft | 15 kts | 237° |
| 2026-05-05 11:23 | 10.31057 | 123.97731 | 33 ft | 12 kts | 312° |
| 2026-05-05 11:23 | 10.31117 | 123.97667 | 33 ft | 12 kts | 314° |
| 2026-05-05 11:23 | 10.31170 | 123.97615 | 33 ft | 0 kts | 327° |
| 2026-05-05 11:24 | 10.31172 | 123.97614 | 33 ft | 1 kts | 328° |
| 2026-05-05 11:24 | 10.31197 | 123.97613 | 33 ft | 5 kts | 7° |
| 2026-05-05 11:24 | 10.31207 | 123.97614 | 33 ft | 0 kts | 7° |